createdAt,value
2016-08-20T10:41:52.810Z,1000.78
2016-08-20T10:42:52.834Z,1000.79
2016-08-20T10:43:52.857Z,1000.74
2016-08-20T10:44:52.882Z,1000.73
2016-08-20T10:45:52.907Z,1000.74
2016-08-20T10:46:52.956Z,1000.78
2016-08-20T10:47:52.958Z,1000.73
2016-08-20T10:48:52.984Z,1000.73
2016-08-20T10:49:53.010Z,1000.69
2016-08-20T10:50:53.037Z,1000.7
2016-08-20T10:51:53.065Z,1000.69
2016-08-20T10:52:53.092Z,1000.68
2016-08-20T10:53:53.119Z,1000.68
2016-08-20T10:54:53.147Z,1000.65
2016-08-20T10:55:53.175Z,1000.69
2016-08-20T10:56:53.202Z,1000.76
2016-08-20T10:57:53.229Z,1000.71
2016-08-20T10:58:53.258Z,1000.73
2016-08-20T10:59:53.292Z,1000.78
2016-08-20T11:00:53.315Z,1000.8
2016-08-20T11:01:53.351Z,1000.88
2016-08-20T11:02:53.371Z,1000.88
2016-08-20T11:03:53.401Z,1000.91
2016-08-20T11:04:53.431Z,1000.9
2016-08-20T11:05:53.460Z,1000.9
2016-08-20T11:06:53.489Z,1000.93
2016-08-20T11:07:53.519Z,1000.94
2016-08-20T11:08:53.547Z,1000.95
2016-08-20T11:09:53.577Z,1000.96
2016-08-20T11:10:53.607Z,1000.97
2016-08-20T11:11:53.636Z,1000.93
2016-08-20T11:12:53.666Z,1000.98
2016-08-20T11:13:53.696Z,1000.96
2016-08-20T11:14:53.727Z,1000.99
2016-08-20T11:15:53.757Z,1000.96
2016-08-20T11:16:53.785Z,1000.89
2016-08-20T11:17:53.818Z,1000.93
2016-08-20T11:18:53.851Z,1000.86
2016-08-20T11:19:53.880Z,1000.84
2016-08-20T11:20:53.908Z,1000.85
2016-08-20T11:21:53.943Z,1000.87
2016-08-20T11:22:53.970Z,1000.86
2016-08-20T11:23:53.999Z,1000.9
2016-08-20T11:24:54.028Z,1000.9
2016-08-20T11:25:54.062Z,1000.91
2016-08-20T11:26:54.144Z,1000.85
2016-08-20T11:27:54.123Z,1000.83
2016-08-20T11:28:54.152Z,1000.93
2016-08-20T11:29:54.183Z,1000.9
2016-08-20T11:30:54.215Z,1000.97
2016-08-20T11:31:54.245Z,1000.98
2016-08-20T11:32:54.277Z,1000.96
2016-08-20T11:33:54.309Z,1001
2016-08-20T11:34:54.339Z,1000.98
2016-08-20T11:35:54.371Z,1000.95
2016-08-20T11:36:54.403Z,1000.95
2016-08-20T11:37:54.434Z,1000.96
2016-08-20T11:38:54.466Z,1000.95
2016-08-20T11:39:54.496Z,1000.93
2016-08-20T11:40:54.529Z,1000.93
2016-08-20T11:41:54.560Z,1000.9
2016-08-20T11:42:54.592Z,1000.93
2016-08-20T11:43:54.623Z,1000.85
2016-08-20T11:44:54.656Z,1000.87
2016-08-20T11:45:54.687Z,1000.88
2016-08-20T11:46:54.718Z,1000.85
2016-08-20T11:47:54.752Z,1000.9
2016-08-20T11:48:54.782Z,1000.89
2016-08-20T11:49:54.814Z,1000.92
2016-08-20T11:50:54.848Z,1000.93
2016-08-20T11:51:54.880Z,1000.92
2016-08-20T11:52:54.910Z,1000.88
2016-08-20T11:53:54.942Z,1000.84
2016-08-20T11:54:54.977Z,1000.85
2016-08-20T11:55:55.007Z,1000.86
2016-08-20T11:56:55.040Z,1000.92
2016-08-20T11:57:55.073Z,1000.91
2016-08-20T11:58:55.107Z,1000.89
2016-08-20T11:59:55.138Z,1000.85
2016-08-20T12:00:55.170Z,1000.9
2016-08-20T12:01:55.203Z,1000.88
2016-08-20T12:02:55.235Z,1000.81
2016-08-20T12:03:55.268Z,1000.87
2016-08-20T12:04:55.300Z,1000.84
2016-08-20T12:05:55.336Z,1000.86
2016-08-20T12:06:55.367Z,1000.9
2016-08-20T12:07:55.399Z,1000.9
2016-08-20T12:08:55.431Z,1000.93
2016-08-20T12:09:55.467Z,1000.86
2016-08-20T12:10:55.499Z,1000.87
2016-08-20T12:11:55.531Z,1000.85
2016-08-20T12:12:55.564Z,1000.84
2016-08-20T12:13:55.596Z,1000.81
2016-08-20T12:14:55.630Z,1000.85
2016-08-20T12:15:55.663Z,1000.82
2016-08-20T12:16:55.697Z,1000.85
2016-08-20T12:17:55.730Z,1000.82
2016-08-20T12:18:55.760Z,1000.8
2016-08-20T12:19:55.796Z,1000.83
2016-08-20T12:20:55.829Z,1000.83
2016-08-20T12:21:55.863Z,1000.87
2016-08-20T12:22:55.896Z,1000.88
2016-08-20T12:23:55.930Z,1000.88
2016-08-20T12:24:55.963Z,1000.9
2016-08-20T12:25:55.997Z,1000.88
2016-08-20T12:26:56.030Z,1000.87
2016-08-20T12:27:56.062Z,1000.9
2016-08-20T12:28:56.095Z,1000.91
2016-08-20T12:29:56.128Z,1000.94
2016-08-20T12:30:56.160Z,1000.93
2016-08-20T12:31:56.194Z,1000.97
2016-08-20T12:32:56.229Z,1000.95
2016-08-20T12:33:56.261Z,1000.96
2016-08-20T12:34:56.297Z,1000.94
2016-08-20T12:35:56.330Z,1000.94
2016-08-20T12:36:56.362Z,1000.93
2016-08-20T12:37:56.397Z,1000.97
2016-08-20T12:38:56.433Z,1000.91
2016-08-20T12:39:56.464Z,1000.93
2016-08-20T12:40:56.496Z,1000.92
2016-08-20T12:41:56.530Z,1000.94
2016-08-20T12:42:56.565Z,1000.92
2016-08-20T12:43:56.598Z,1000.95
2016-08-20T12:44:56.631Z,1000.96
2016-08-20T12:45:56.666Z,1000.9
2016-08-20T12:46:56.701Z,1000.92
2016-08-20T12:47:56.735Z,1000.9
2016-08-20T12:48:56.769Z,1000.94
2016-08-20T12:49:56.806Z,1000.92
2016-08-20T12:50:56.836Z,1000.93
2016-08-20T12:51:56.868Z,1000.89
2016-08-20T12:52:56.906Z,1000.88
2016-08-20T12:53:56.938Z,1000.88
2016-08-20T12:54:56.971Z,1000.86
2016-08-20T12:55:57.006Z,1000.81
2016-08-20T12:56:57.040Z,1000.81
2016-08-20T12:57:57.072Z,1000.78
2016-08-20T12:58:57.107Z,1000.77
2016-08-20T12:59:57.149Z,1000.71
2016-08-20T13:00:57.174Z,1000.77
2016-08-20T13:01:57.210Z,1000.82
2016-08-20T13:02:57.242Z,1000.8
2016-08-20T13:03:57.276Z,1000.87
2016-08-20T13:04:57.310Z,1000.81
2016-08-20T13:05:57.345Z,1000.78
2016-08-20T13:06:57.378Z,1000.85
2016-08-20T13:07:57.412Z,1000.81
2016-08-20T13:08:57.447Z,1000.8
2016-08-20T13:09:57.481Z,1000.79
2016-08-20T13:10:57.514Z,1000.8
2016-08-20T13:11:57.549Z,1000.77
2016-08-20T13:12:57.584Z,1000.77
2016-08-20T13:13:57.618Z,1000.82
2016-08-20T13:14:57.651Z,1000.82
2016-08-20T13:15:57.687Z,1000.86
2016-08-20T13:16:57.720Z,1000.89
2016-08-20T13:17:57.754Z,1000.93
2016-08-20T13:18:57.788Z,1000.96
2016-08-20T13:19:57.824Z,1000.99
2016-08-20T13:20:57.857Z,1000.98
2016-08-20T13:21:57.892Z,1000.99
2016-08-20T13:22:57.927Z,1001
2016-08-20T13:23:57.960Z,1001.06
2016-08-20T13:24:57.993Z,1001.08
2016-08-20T13:25:58.030Z,1001.11
2016-08-20T13:26:58.062Z,1001.07
2016-08-20T13:27:58.097Z,1001.1
2016-08-20T13:28:58.130Z,1001.09
2016-08-20T13:29:58.166Z,1001.06
2016-08-20T13:30:58.200Z,1001.08
2016-08-20T13:31:58.233Z,1001.07
2016-08-20T13:32:58.267Z,1001.05
2016-08-20T13:33:58.302Z,1001
2016-08-20T13:34:58.350Z,1000.91
2016-08-20T13:35:58.371Z,1000.91
2016-08-20T13:36:58.405Z,1000.82
2016-08-20T13:37:58.440Z,1000.81
2016-08-20T13:38:58.474Z,1000.79
2016-08-20T13:39:58.507Z,1000.75
2016-08-20T13:40:58.590Z,1000.76
2016-08-20T13:41:58.575Z,1000.77
2016-08-20T13:42:58.609Z,1000.76
2016-08-20T13:43:58.644Z,1000.73
2016-08-20T13:44:58.679Z,1000.7
2016-08-20T13:45:58.715Z,1000.68
2016-08-20T13:46:58.747Z,1000.66
2016-08-20T13:47:58.782Z,1000.65
2016-08-20T13:48:58.815Z,1000.64
2016-08-20T13:49:58.850Z,1000.63
2016-08-20T13:50:58.886Z,1000.56
2016-08-20T13:51:58.919Z,1000.54
2016-08-20T13:52:58.955Z,1000.55
2016-08-20T13:53:59.080Z,1000.53
2016-08-20T13:54:59.026Z,1000.54
2016-08-20T13:55:59.122Z,1000.53
2016-08-20T13:56:59.131Z,1000.53
2016-08-20T13:57:59.141Z,1000.53
2016-08-20T13:58:59.159Z,1000.47
2016-08-20T13:59:59.195Z,1000.45
2016-08-20T14:00:59.228Z,1000.44
2016-08-20T14:01:59.261Z,1000.49
2016-08-20T14:02:59.296Z,1000.51
2016-08-20T14:03:59.331Z,1000.47
2016-08-20T14:04:59.393Z,1000.49
2016-08-20T14:05:59.398Z,1000.45
2016-08-20T14:06:59.433Z,1000.48
2016-08-20T14:07:59.468Z,1000.52
2016-08-20T14:08:59.502Z,1000.53
2016-08-20T14:09:59.535Z,1000.51
2016-08-20T14:10:59.573Z,1000.52
2016-08-20T14:11:59.604Z,1000.52
2016-08-20T14:12:59.638Z,1000.56
2016-08-20T14:13:59.672Z,1000.54
2016-08-20T14:14:59.708Z,1000.55
2016-08-20T14:15:59.739Z,1000.58
2016-08-20T14:16:59.774Z,1000.56
2016-08-20T14:17:59.809Z,1000.57
2016-08-20T14:18:59.844Z,1000.55
2016-08-20T14:19:59.878Z,1000.57
2016-08-20T14:20:59.912Z,1000.58
2016-08-20T14:21:59.983Z,1000.59
2016-08-20T14:22:59.980Z,1000.62
2016-08-20T14:24:00.117Z,1000.61
2016-08-20T14:25:00.049Z,1000.6
2016-08-20T14:26:00.172Z,1000.59
2016-08-20T14:27:00.159Z,1000.59
2016-08-20T14:28:00.226Z,1000.59
2016-08-20T14:29:00.237Z,1000.58
2016-08-20T14:30:00.245Z,1000.61
2016-08-20T14:31:00.254Z,1000.63
2016-08-20T14:32:00.397Z,1000.65
2016-08-20T14:33:00.402Z,1000.68
2016-08-20T14:34:00.415Z,1000.66
2016-08-20T14:35:00.390Z,1000.64
2016-08-20T14:36:00.423Z,1000.62
2016-08-20T14:37:00.457Z,1000.6
2016-08-20T14:38:00.491Z,1000.58
2016-08-20T14:39:00.525Z,1000.62
2016-08-20T14:40:00.568Z,1000.62
2016-08-20T14:41:00.642Z,1000.61
2016-08-20T14:42:00.635Z,1000.62
2016-08-20T14:43:00.661Z,1000.63
2016-08-20T14:44:00.699Z,1000.59
2016-08-20T14:45:00.728Z,1000.6
2016-08-20T14:46:00.761Z,1000.58
2016-08-20T14:47:00.796Z,1000.57
2016-08-20T14:48:00.828Z,1000.55
2016-08-20T14:49:00.868Z,1000.56
2016-08-20T14:50:00.897Z,1000.57
2016-08-20T14:51:01.000Z,1000.55
2016-08-20T14:52:00.965Z,1000.56
2016-08-20T14:53:01.009Z,1000.55
2016-08-20T14:54:01.032Z,1000.6
2016-08-20T14:55:01.066Z,1000.65
2016-08-20T14:56:01.130Z,1000.61
2016-08-20T14:57:01.132Z,1000.66
2016-08-20T14:58:01.175Z,1000.67
2016-08-20T14:59:01.205Z,1000.67
2016-08-20T15:00:01.236Z,1000.7
2016-08-20T15:01:01.266Z,1000.74
2016-08-20T15:02:01.303Z,1000.69
2016-08-20T15:03:01.331Z,1000.68
2016-08-20T15:04:01.366Z,1000.68
2016-08-20T15:05:01.399Z,1000.65
2016-08-20T15:06:01.433Z,1000.67
2016-08-20T15:07:01.465Z,1000.69
2016-08-20T15:08:01.506Z,1000.68
2016-08-20T15:09:01.532Z,1000.67
2016-08-20T15:10:01.566Z,1000.68
2016-08-20T15:11:01.599Z,1000.65
2016-08-20T15:12:01.632Z,1000.65
2016-08-20T15:13:01.667Z,1000.67
2016-08-20T15:14:01.699Z,1000.67
2016-08-20T15:15:01.732Z,1000.72
2016-08-20T15:16:01.767Z,1000.73
2016-08-20T15:17:01.799Z,1000.76
2016-08-20T15:18:01.833Z,1000.77
2016-08-20T15:19:01.866Z,1000.84
2016-08-20T15:20:01.903Z,1000.86
2016-08-20T15:21:01.931Z,1000.86
2016-08-20T15:22:01.963Z,1000.89
2016-08-20T15:23:01.997Z,1000.91
2016-08-20T15:24:02.032Z,1000.95
2016-08-20T15:25:02.064Z,1000.88
2016-08-20T15:26:02.097Z,1000.91
2016-08-20T15:27:02.132Z,1000.94
2016-08-20T15:28:02.257Z,1000.92
2016-08-20T15:29:02.196Z,1000.9
2016-08-20T15:30:02.228Z,1000.96
2016-08-20T15:31:02.263Z,1001.01
2016-08-20T15:32:02.295Z,1001
2016-08-20T15:33:02.328Z,1001.06
2016-08-20T15:34:02.364Z,1001.14
2016-08-20T15:35:02.394Z,1001.11
2016-08-20T15:36:02.426Z,1001.16
2016-08-20T15:37:02.459Z,1001.15
2016-08-20T15:38:02.513Z,1001.21
2016-08-20T15:39:02.525Z,1001.12
2016-08-20T15:40:02.557Z,1001.22
2016-08-20T15:41:02.590Z,1001.23
2016-08-20T15:42:02.625Z,1001.21
2016-08-20T15:43:02.655Z,1001.3
2016-08-20T15:44:02.687Z,1001.3
2016-08-20T15:45:02.719Z,1001.29
2016-08-20T15:46:02.753Z,1001.25
2016-08-20T15:47:02.784Z,1001.29
2016-08-20T15:48:02.817Z,1001.3
2016-08-20T15:49:02.849Z,1001.32
2016-08-20T15:50:02.883Z,1001.33
2016-08-20T15:51:02.915Z,1001.37
2016-08-20T15:52:02.947Z,1001.4
2016-08-20T15:53:02.980Z,1001.4
2016-08-20T15:54:03.012Z,1001.42
2016-08-20T15:55:03.044Z,1001.39
2016-08-20T15:56:03.077Z,1001.37
2016-08-20T15:57:03.109Z,1001.39
2016-08-20T15:58:03.138Z,1001.43
2016-08-20T15:59:03.171Z,1001.47
2016-08-20T16:00:03.205Z,1001.48
2016-08-20T16:01:03.237Z,1001.52
2016-08-20T16:02:03.268Z,1001.52
2016-08-20T16:03:03.301Z,1001.62
2016-08-20T16:04:03.333Z,1001.63
2016-08-20T16:05:03.364Z,1001.7
2016-08-20T16:06:03.396Z,1001.66
2016-08-20T16:07:03.430Z,1001.72
2016-08-20T16:08:03.462Z,1001.69
2016-08-20T16:09:03.491Z,1001.72
2016-08-20T16:10:03.526Z,1001.71
2016-08-20T16:11:03.557Z,1001.74
2016-08-20T16:12:03.587Z,1001.74
2016-08-20T16:13:03.618Z,1001.76
2016-08-20T16:14:03.652Z,1001.78
2016-08-20T16:15:03.682Z,1001.78
2016-08-20T16:16:03.716Z,1001.8
2016-08-20T16:17:03.747Z,1001.84
2016-08-20T16:18:03.778Z,1001.79
2016-08-20T16:19:03.815Z,1001.84
2016-08-20T16:20:03.841Z,1001.78
2016-08-20T16:21:03.872Z,1001.76
2016-08-20T16:22:03.903Z,1001.74
2016-08-20T16:23:03.934Z,1001.77
2016-08-20T16:24:03.968Z,1001.81
2016-08-20T16:25:03.998Z,1001.89
2016-08-20T16:26:04.030Z,1001.87
2016-08-20T16:27:04.063Z,1001.91
2016-08-20T16:28:04.094Z,1001.87
2016-08-20T16:29:04.122Z,1001.95
2016-08-20T16:30:04.157Z,1001.99
2016-08-20T16:31:04.185Z,1001.98
2016-08-20T16:32:04.217Z,1002.02
2016-08-20T16:33:04.250Z,1002.07
2016-08-20T16:34:04.281Z,1002.11
2016-08-20T16:35:04.311Z,1002.09
2016-08-20T16:36:04.344Z,1002.1
2016-08-20T16:37:04.374Z,1002.08
2016-08-20T16:38:04.405Z,1002.12
2016-08-20T16:39:04.435Z,1002.06
2016-08-20T16:40:04.473Z,1002.1
2016-08-20T16:41:04.498Z,1002.16
2016-08-20T16:42:04.528Z,1002.1
2016-08-20T16:43:04.559Z,1002.09
2016-08-20T16:44:04.596Z,1002.14
2016-08-20T16:45:04.623Z,1002.12
2016-08-20T16:46:04.652Z,1002.12
2016-08-20T16:47:04.682Z,1002.13
2016-08-20T16:48:04.714Z,1002.12
2016-08-20T16:49:04.745Z,1002.15
2016-08-20T16:50:04.775Z,1002.14
2016-08-20T16:51:04.806Z,1002.16
2016-08-20T16:52:04.837Z,1002.16
2016-08-20T16:53:04.867Z,1002.12
2016-08-20T16:54:04.898Z,1002.12
2016-08-20T16:55:04.932Z,1002.15
2016-08-20T16:56:04.963Z,1002.15
2016-08-20T16:57:04.990Z,1002.21
2016-08-20T16:58:05.020Z,1002.21
2016-08-20T16:59:05.051Z,1002.23
2016-08-20T17:00:05.082Z,1002.16
2016-08-20T17:01:05.113Z,1002.16
2016-08-20T17:02:05.144Z,1002.14
2016-08-20T17:03:05.176Z,1002.15
2016-08-20T17:04:05.204Z,1002.18
2016-08-20T17:05:05.235Z,1002.21
2016-08-20T17:06:05.267Z,1002.25
2016-08-20T17:07:05.297Z,1002.28
2016-08-20T17:08:05.327Z,1002.25
2016-08-20T17:09:05.357Z,1002.25
2016-08-20T17:10:05.390Z,1002.29
2016-08-20T17:11:05.417Z,1002.23
2016-08-20T17:12:05.449Z,1002.22
2016-08-20T17:13:05.479Z,1002.29
2016-08-20T17:14:05.511Z,1002.28
2016-08-20T17:15:05.539Z,1002.27
2016-08-20T17:16:05.574Z,1002.26
2016-08-20T17:17:05.600Z,1002.3
2016-08-20T17:18:05.631Z,1002.26
2016-08-20T17:19:05.660Z,1002.31
2016-08-20T17:20:05.691Z,1002.35
2016-08-20T17:21:05.727Z,1002.38
2016-08-20T17:22:05.850Z,1002.39
2016-08-20T17:23:05.885Z,1002.38
2016-08-20T17:24:05.882Z,1002.36
2016-08-20T17:25:05.891Z,1002.39
2016-08-20T17:26:05.900Z,1002.38
2016-08-20T17:27:05.909Z,1002.37
2016-08-20T17:28:05.931Z,1002.4
2016-08-20T17:29:06.056Z,1002.39
2016-08-20T17:30:06.087Z,1002.38
2016-08-20T17:31:06.093Z,1002.35
2016-08-20T17:32:06.103Z,1002.33
2016-08-20T17:33:06.112Z,1002.32
2016-08-20T17:34:06.112Z,1002.31
2016-08-20T17:35:06.161Z,1002.3
2016-08-20T17:36:06.170Z,1002.34
2016-08-20T17:37:06.198Z,1002.33
2016-08-20T17:38:06.228Z,1002.36
2016-08-20T17:39:06.259Z,1002.33
2016-08-20T17:40:06.290Z,1002.32
2016-08-20T17:41:06.317Z,1002.35
2016-08-20T17:42:06.347Z,1002.34
2016-08-20T17:43:06.379Z,1002.32
2016-08-20T17:44:06.407Z,1002.3
2016-08-20T17:45:06.438Z,1002.25
2016-08-20T17:46:06.467Z,1002.27
2016-08-20T17:47:06.497Z,1002.27
2016-08-20T17:48:06.527Z,1002.31
2016-08-20T17:49:06.555Z,1002.29
2016-08-20T17:50:06.585Z,1002.32
2016-08-20T17:51:06.616Z,1002.32
2016-08-20T17:52:06.645Z,1002.32
2016-08-20T17:53:06.675Z,1002.27
2016-08-20T17:54:06.705Z,1002.27
2016-08-20T17:55:06.732Z,1002.3
2016-08-20T17:56:06.762Z,1002.26
2016-08-20T17:57:06.792Z,1002.28
2016-08-20T17:58:06.821Z,1002.22
2016-08-20T17:59:06.849Z,1002.21
2016-08-20T18:00:06.878Z,1002.22
2016-08-20T18:01:06.908Z,1002.21
2016-08-20T18:02:06.939Z,1002.22
2016-08-20T18:03:06.969Z,1002.21
2016-08-20T18:04:06.997Z,1002.24
2016-08-20T18:05:07.028Z,1002.26
2016-08-20T18:06:07.055Z,1002.18
2016-08-20T18:07:07.085Z,1002.12
2016-08-20T18:08:07.114Z,1002.11
2016-08-20T18:09:07.144Z,1002.1
2016-08-20T18:10:07.172Z,1002.05
2016-08-20T18:11:07.201Z,1002.08
2016-08-20T18:12:07.231Z,1002.15
2016-08-20T18:13:07.263Z,1002.13
2016-08-20T18:14:07.289Z,1002.11
2016-08-20T18:15:07.318Z,1002.15
2016-08-20T18:16:07.349Z,1002.2
2016-08-20T18:17:07.376Z,1002.22
2016-08-20T18:18:07.406Z,1002.24
2016-08-20T18:19:07.435Z,1002.2
2016-08-20T18:20:07.465Z,1002.23
2016-08-20T18:21:07.493Z,1002.2
2016-08-20T18:22:07.530Z,1002.21
2016-08-20T18:23:07.552Z,1002.17
2016-08-20T18:24:07.584Z,1002.13
2016-08-20T18:25:07.608Z,1002.15
2016-08-20T18:26:07.639Z,1002.11
2016-08-20T18:27:07.668Z,1002.16
2016-08-20T18:28:07.695Z,1002.17
2016-08-20T18:29:07.726Z,1002.16
2016-08-20T18:30:07.756Z,1002.19
2016-08-20T18:31:07.783Z,1002.18
2016-08-20T18:32:07.813Z,1002.23
2016-08-20T18:33:07.840Z,1002.25
2016-08-20T18:34:07.871Z,1002.29
2016-08-20T18:35:07.899Z,1002.32
2016-08-20T18:36:07.929Z,1002.31
2016-08-20T18:37:07.957Z,1002.33
2016-08-20T18:38:07.987Z,1002.35
2016-08-20T18:39:08.014Z,1002.37
2016-08-20T18:40:08.044Z,1002.38
2016-08-20T18:41:08.123Z,1002.4
2016-08-20T18:42:08.101Z,1002.45
2016-08-20T18:43:08.129Z,1002.5
2016-08-20T18:44:08.159Z,1002.58
2016-08-20T18:45:08.188Z,1002.59
2016-08-20T18:46:08.216Z,1002.57
2016-08-20T18:47:08.244Z,1002.59
2016-08-20T18:48:08.273Z,1002.52
2016-08-20T18:49:08.301Z,1002.55
2016-08-20T18:50:08.330Z,1002.54
2016-08-20T18:51:08.359Z,1002.52
2016-08-20T18:52:08.390Z,1002.5
2016-08-20T18:53:08.418Z,1002.52
2016-08-20T18:54:08.446Z,1002.55
2016-08-20T18:55:08.474Z,1002.56
2016-08-20T18:56:08.503Z,1002.55
2016-08-20T18:57:08.532Z,1002.58
2016-08-20T18:58:08.560Z,1002.54
2016-08-20T18:59:08.589Z,1002.53
2016-08-20T19:00:08.619Z,1002.54
2016-08-20T19:01:08.646Z,1002.51
2016-08-20T19:02:08.674Z,1002.54
2016-08-20T19:03:08.703Z,1002.56
2016-08-20T19:04:08.731Z,1002.52
2016-08-20T19:05:08.758Z,1002.53
2016-08-20T19:06:08.790Z,1002.56
2016-08-20T19:07:08.818Z,1002.54
2016-08-20T19:08:08.846Z,1002.57
2016-08-20T19:09:08.874Z,1002.6
2016-08-20T19:10:08.903Z,1002.64
2016-08-20T19:11:08.931Z,1002.68
2016-08-20T19:12:08.958Z,1002.76
2016-08-20T19:13:08.988Z,1002.78
2016-08-20T19:14:09.017Z,1002.81
2016-08-20T19:15:09.046Z,1002.84
2016-08-20T19:16:09.073Z,1002.86
2016-08-20T19:17:09.102Z,1002.86
2016-08-20T19:18:09.134Z,1002.87
2016-08-20T19:19:09.158Z,1002.87
2016-08-20T19:20:09.186Z,1002.9
2016-08-20T19:21:09.216Z,1002.94
2016-08-20T19:22:09.245Z,1002.97
2016-08-20T19:23:09.272Z,1003
2016-08-20T19:24:09.301Z,1003.09
2016-08-20T19:25:09.327Z,1003.14
2016-08-20T19:26:09.357Z,1003.19
2016-08-20T19:27:09.385Z,1003.19
2016-08-20T19:28:09.415Z,1003.26
2016-08-20T19:29:09.442Z,1003.27
2016-08-20T19:30:09.470Z,1003.27
2016-08-20T19:31:09.500Z,1003.26
2016-08-20T19:32:09.528Z,1003.25
2016-08-20T19:33:09.555Z,1003.31
2016-08-20T19:34:09.588Z,1003.38
2016-08-20T19:35:09.610Z,1003.39
2016-08-20T19:36:09.639Z,1003.41
2016-08-20T19:37:09.668Z,1003.46
2016-08-20T19:38:09.696Z,1003.5
2016-08-20T19:39:09.727Z,1003.56
2016-08-20T19:40:09.752Z,1003.55
2016-08-20T19:41:09.832Z,1003.57
2016-08-20T19:42:09.811Z,1003.59
2016-08-20T19:43:09.837Z,1003.58
2016-08-20T19:44:09.867Z,1003.6
2016-08-20T19:45:09.902Z,1003.58
2016-08-20T19:46:09.922Z,1003.56
2016-08-20T19:47:09.949Z,1003.55
2016-08-20T19:48:09.979Z,1003.57
2016-08-20T19:49:10.006Z,1003.59
2016-08-20T19:50:10.034Z,1003.6
2016-08-20T19:51:10.062Z,1003.63
2016-08-20T19:52:10.088Z,1003.65
2016-08-20T19:53:10.119Z,1003.65
2016-08-20T19:54:10.148Z,1003.67
2016-08-20T19:55:10.175Z,1003.68
2016-08-20T19:56:10.204Z,1003.73
2016-08-20T19:57:10.231Z,1003.76
2016-08-20T19:58:10.258Z,1003.74
2016-08-20T19:59:10.288Z,1003.7
2016-08-20T20:00:10.314Z,1003.69
2016-08-20T20:01:10.342Z,1003.72
2016-08-20T20:02:10.376Z,1003.68
2016-08-20T20:03:10.397Z,1003.72
2016-08-20T20:04:10.427Z,1003.74
2016-08-20T20:05:10.461Z,1003.78
2016-08-20T20:06:10.485Z,1003.78
2016-08-20T20:07:10.510Z,1003.76
2016-08-20T20:08:10.539Z,1003.77
2016-08-20T20:09:10.568Z,1003.77
2016-08-20T20:10:10.594Z,1003.82
2016-08-20T20:11:10.624Z,1003.81
2016-08-20T20:12:10.651Z,1003.8
2016-08-20T20:13:10.679Z,1003.81
2016-08-20T20:14:10.707Z,1003.83
2016-08-20T20:15:10.734Z,1003.85
2016-08-20T20:16:10.762Z,1003.81
2016-08-20T20:17:10.791Z,1003.81
2016-08-20T20:18:10.818Z,1003.77
2016-08-20T20:19:10.847Z,1003.77
2016-08-20T20:20:10.876Z,1003.74
2016-08-20T20:21:10.904Z,1003.75
2016-08-20T20:22:10.930Z,1003.73
2016-08-20T20:23:10.960Z,1003.71
2016-08-20T20:24:10.987Z,1003.72
2016-08-20T20:25:11.013Z,1003.73
2016-08-20T20:26:11.042Z,1003.75
2016-08-20T20:27:11.071Z,1003.75
2016-08-20T20:28:11.103Z,1003.74
2016-08-20T20:29:11.125Z,1003.71
2016-08-20T20:30:11.154Z,1003.74
2016-08-20T20:31:11.181Z,1003.75
2016-08-20T20:32:11.207Z,1003.79
2016-08-20T20:33:11.236Z,1003.82
2016-08-20T20:34:11.264Z,1003.85
2016-08-20T20:35:11.292Z,1003.82
2016-08-20T20:36:11.320Z,1003.86
2016-08-20T20:37:11.347Z,1003.84
2016-08-20T20:38:11.375Z,1003.88
2016-08-20T20:39:11.403Z,1003.91
2016-08-20T20:40:11.430Z,1003.93
2016-08-20T20:41:11.459Z,1003.9
2016-08-20T20:42:11.486Z,1003.9
2016-08-20T20:43:11.513Z,1003.86
2016-08-20T20:44:11.542Z,1003.85
2016-08-20T20:45:11.569Z,1003.86
2016-08-20T20:46:11.597Z,1003.84
2016-08-20T20:47:11.623Z,1003.82
2016-08-20T20:48:11.652Z,1003.86
2016-08-20T20:49:11.680Z,1003.83
2016-08-20T20:50:11.707Z,1003.84
2016-08-20T20:51:11.735Z,1003.85
2016-08-20T20:52:11.762Z,1003.83
2016-08-20T20:53:11.790Z,1003.84
2016-08-20T20:54:11.818Z,1003.84
2016-08-20T20:55:11.845Z,1003.81
2016-08-20T20:56:11.877Z,1003.83
2016-08-20T20:57:11.901Z,1003.8
2016-08-20T20:58:11.927Z,1003.8
2016-08-20T20:59:11.955Z,1003.8
2016-08-20T21:00:11.982Z,1003.8
2016-08-20T21:01:12.011Z,1003.78
2016-08-20T21:02:12.038Z,1003.79
2016-08-20T21:03:12.066Z,1003.76
2016-08-20T21:04:12.093Z,1003.62
2016-08-20T21:05:12.120Z,1003.44
2016-08-20T21:06:12.147Z,1003.36
2016-08-20T21:07:12.175Z,1003.42
2016-08-20T21:08:12.202Z,1003.45
2016-08-20T21:09:12.229Z,1003.53
2016-08-20T21:10:12.258Z,1003.55
2016-08-20T21:11:12.284Z,1003.54
2016-08-20T21:12:12.314Z,1003.54
2016-08-20T21:13:12.349Z,1003.55
2016-08-20T21:14:12.370Z,1003.46
2016-08-20T21:15:12.395Z,1003.49
2016-08-20T21:16:12.424Z,1003.5
2016-08-20T21:17:12.450Z,1003.54
2016-08-20T21:18:12.476Z,1003.6
2016-08-20T21:19:12.505Z,1003.68
2016-08-20T21:20:12.533Z,1003.65
2016-08-20T21:21:12.560Z,1003.62
2016-08-20T21:22:12.586Z,1003.57
2016-08-20T21:23:12.615Z,1003.52
2016-08-20T21:24:12.640Z,1003.52
2016-08-20T21:25:12.667Z,1003.49
2016-08-20T21:26:12.696Z,1003.5
2016-08-20T21:27:12.723Z,1003.46
2016-08-20T21:28:12.750Z,1003.44
2016-08-20T21:29:12.778Z,1003.38
2016-08-20T21:30:12.804Z,1003.36
2016-08-20T21:31:12.833Z,1003.33
2016-08-20T21:32:12.859Z,1003.36
2016-08-20T21:33:12.886Z,1003.32
2016-08-20T21:34:12.913Z,1003.33
2016-08-20T21:35:12.941Z,1003.3
2016-08-20T21:36:12.966Z,1003.33
2016-08-20T21:37:12.995Z,1003.43
2016-08-20T21:38:13.022Z,1003.42
2016-08-20T21:39:13.049Z,1003.43
2016-08-20T21:40:13.076Z,1003.36
2016-08-20T21:41:13.105Z,1003.35
2016-08-20T21:42:13.132Z,1003.34
2016-08-20T21:43:13.158Z,1003.35
2016-08-20T21:44:13.187Z,1003.38
2016-08-20T21:45:13.214Z,1003.34
2016-08-20T21:46:13.241Z,1003.36
2016-08-20T21:47:13.269Z,1003.37
2016-08-20T21:48:13.294Z,1003.32
2016-08-20T21:49:13.320Z,1003.32
2016-08-20T21:50:13.348Z,1003.29
2016-08-20T21:51:13.374Z,1003.27
2016-08-20T21:52:13.404Z,1003.21
2016-08-20T21:53:13.430Z,1003.26
2016-08-20T21:54:13.457Z,1003.26
2016-08-20T21:55:13.484Z,1003.24
2016-08-20T21:56:13.510Z,1003.27
2016-08-20T21:57:13.537Z,1003.26
2016-08-20T21:58:13.564Z,1003.3
2016-08-20T21:59:13.591Z,1003.32
2016-08-20T22:00:13.617Z,1003.36
2016-08-20T22:01:13.644Z,1003.34
2016-08-20T22:02:13.672Z,1003.37
2016-08-20T22:03:13.699Z,1003.4
2016-08-20T22:04:13.726Z,1003.41
2016-08-20T22:05:13.754Z,1003.4
2016-08-20T22:06:13.779Z,1003.4
2016-08-20T22:07:13.805Z,1003.39
2016-08-20T22:08:13.833Z,1003.43
2016-08-20T22:09:13.862Z,1003.45
2016-08-20T22:10:13.886Z,1003.49
2016-08-20T22:11:13.914Z,1003.46
2016-08-20T22:12:13.940Z,1003.46
2016-08-20T22:13:13.968Z,1003.46
2016-08-20T22:14:13.997Z,1003.47
2016-08-20T22:15:14.020Z,1003.48
2016-08-20T22:16:14.047Z,1003.46
2016-08-20T22:17:14.075Z,1003.47
2016-08-20T22:18:14.101Z,1003.5
2016-08-20T22:19:14.127Z,1003.52
2016-08-20T22:20:14.154Z,1003.55
2016-08-20T22:21:14.181Z,1003.57
2016-08-20T22:22:14.209Z,1003.59
2016-08-20T22:23:14.237Z,1003.58
2016-08-20T22:24:14.263Z,1003.6
2016-08-20T22:25:14.288Z,1003.64
2016-08-20T22:26:14.314Z,1003.61
2016-08-20T22:27:14.343Z,1003.61
2016-08-20T22:28:14.371Z,1003.63
2016-08-20T22:29:14.394Z,1003.62
2016-08-20T22:30:14.420Z,1003.63
2016-08-20T22:31:14.448Z,1003.6
2016-08-20T22:32:14.477Z,1003.61
2016-08-20T22:33:14.501Z,1003.62
2016-08-20T22:34:14.529Z,1003.62
2016-08-20T22:35:14.554Z,1003.61
2016-08-20T22:36:14.581Z,1003.6
2016-08-20T22:37:14.608Z,1003.61
2016-08-20T22:38:14.635Z,1003.65
2016-08-20T22:39:14.663Z,1003.71
2016-08-20T22:40:14.687Z,1003.75
2016-08-20T22:41:14.719Z,1003.79
2016-08-20T22:42:14.741Z,1003.81
2016-08-20T22:43:14.768Z,1003.82
2016-08-20T22:44:14.794Z,1003.8
2016-08-20T22:45:14.819Z,1003.8
2016-08-20T22:46:14.846Z,1003.76
2016-08-20T22:47:14.874Z,1003.7
2016-08-20T22:48:14.904Z,1003.69
2016-08-20T22:49:14.926Z,1003.62
2016-08-20T22:50:14.954Z,1003.57